sensor_id;sensor_type;location;lat;lon;timestamp;pressure;altitude;pressure_sealevel;temperature;humidity
39793;BME280;26080;42.264;24.536;2023-01-30T00:00:55;99706.59;;;1.81;100.00
39793;BME280;26080;42.264;24.536;2023-01-30T00:03:22;99710.81;;;1.91;100.00
39793;BME280;26080;42.264;24.536;2023-01-30T00:05:47;99700.47;;;1.99;100.00
39793;BME280;26080;42.264;24.536;2023-01-30T00:08:13;99660.09;;;1.78;100.00
39793;BME280;26080;42.264;24.536;2023-01-30T00:10:39;99698.75;;;1.98;100.00
39793;BME280;26080;42.264;24.536;2023-01-30T00:13:04;99661.00;;;1.80;100.00
39793;BME280;26080;42.264;24.536;2023-01-30T00:15:30;99676.44;;;1.85;100.00
39793;BME280;26080;42.264;24.536;2023-01-30T00:17:55;99693.59;;;1.95;100.00
39793;BME280;26080;42.264;24.536;2023-01-30T00:20:21;99695.28;;;2.00;100.00
39793;BME280;26080;42.264;24.536;2023-01-30T00:22:46;99689.22;;;2.04;100.00
39793;BME280;26080;42.264;24.536;2023-01-30T00:25:12;99696.03;;;2.15;100.00
39793;BME280;26080;42.264;24.536;2023-01-30T00:27:37;99687.44;;;2.13;100.00
39793;BME280;26080;42.264;24.536;2023-01-30T00:30:03;99689.91;;;2.28;100.00
39793;BME280;26080;42.264;24.536;2023-01-30T00:32:30;99697.66;;;2.31;100.00
39793;BME280;26080;42.264;24.536;2023-01-30T00:34:56;99688.16;;;2.36;100.00
39793;BME280;26080;42.264;24.536;2023-01-30T00:37:21;99673.72;;;2.07;100.00
39793;BME280;26080;42.264;24.536;2023-01-30T00:39:47;99667.66;;;2.12;100.00
39793;BME280;26080;42.264;24.536;2023-01-30T00:42:12;99653.06;;;2.07;100.00
39793;BME280;26080;42.264;24.536;2023-01-30T00:44:56;99678.78;;;2.23;100.00
39793;BME280;26080;42.264;24.536;2023-01-30T00:47:40;99673.50;;;2.32;100.00
39793;BME280;26080;42.264;24.536;2023-01-30T00:50:06;99676.97;;;2.34;100.00
39793;BME280;26080;42.264;24.536;2023-01-30T00:52:31;99668.47;;;2.17;100.00
39793;BME280;26080;42.264;24.536;2023-01-30T00:54:57;99668.66;;;1.92;100.00
39793;BME280;26080;42.264;24.536;2023-01-30T00:57:22;99668.66;;;1.89;100.00
39793;BME280;26080;42.264;24.536;2023-01-30T00:59:48;99670.38;;;1.93;100.00
39793;BME280;26080;42.264;24.536;2023-01-30T01:02:13;99665.19;;;1.90;100.00
39793;BME280;26080;42.264;24.536;2023-01-30T01:04:39;99666.16;;;1.77;100.00
39793;BME280;26080;42.264;24.536;2023-01-30T01:07:14;99670.50;;;1.69;100.00
39793;BME280;26080;42.264;24.536;2023-01-30T01:09:39;99668.81;;;1.63;100.00
39793;BME280;26080;42.264;24.536;2023-01-30T01:12:05;99662.81;;;1.58;100.00
39793;BME280;26080;42.264;24.536;2023-01-30T01:14:31;99659.38;;;1.58;100.00
39793;BME280;26080;42.264;24.536;2023-01-30T01:16:57;99660.28;;;1.54;100.00
39793;BME280;26080;42.264;24.536;2023-01-30T01:19:23;99643.13;;;1.42;100.00
39793;BME280;26080;42.264;24.536;2023-01-30T01:21:48;99649.94;;;1.54;100.00
39793;BME280;26080;42.264;24.536;2023-01-30T01:24:14;99643.94;;;1.48;100.00
39793;BME280;26080;42.264;24.536;2023-01-30T01:26:40;99641.34;;;1.52;100.00
39793;BME280;26080;42.264;24.536;2023-01-30T01:29:06;99637.06;;;1.46;100.00
39793;BME280;26080;42.264;24.536;2023-01-30T01:31:35;99637.06;;;1.46;100.00
39793;BME280;26080;42.264;24.536;2023-01-30T01:34:00;99637.94;;;1.43;100.00
39793;BME280;26080;42.264;24.536;2023-01-30T01:36:26;99621.66;;;1.31;100.00
39793;BME280;26080;42.264;24.536;2023-01-30T01:38:51;99642.25;;;1.41;100.00
39793;BME280;26080;42.264;24.536;2023-01-30T01:41:17;99641.38;;;1.44;100.00
39793;BME280;26080;42.264;24.536;2023-01-30T01:44:05;99638.81;;;1.41;100.00
39793;BME280;26080;42.264;24.536;2023-01-30T01:46:44;99650.00;;;1.41;100.00
39793;BME280;26080;42.264;24.536;2023-01-30T01:49:14;99637.13;;;1.40;100.00
39793;BME280;26080;42.264;24.536;2023-01-30T01:51:55;99638.84;;;1.38;100.00
39793;BME280;26080;42.264;24.536;2023-01-30T01:54:30;99634.53;;;1.35;100.00
39793;BME280;26080;42.264;24.536;2023-01-30T01:57:00;99642.28;;;1.34;100.00
39793;BME280;26080;42.264;24.536;2023-01-30T01:59:47;99635.41;;;1.37;100.00
39793;BME280;26080;42.264;24.536;2023-01-30T02:02:16;99639.69;;;1.35;100.00
39793;BME280;26080;42.264;24.536;2023-01-30T02:04:45;99642.28;;;1.34;100.00
39793;BME280;26080;42.264;24.536;2023-01-30T02:10:33;99615.72;;;1.15;100.00
39793;BME280;26080;42.264;24.536;2023-01-30T02:13:00;99632.00;;;1.28;100.00
39793;BME280;26080;42.264;24.536;2023-01-30T02:15:26;99624.25;;;1.23;100.00
39793;BME280;26080;42.264;24.536;2023-01-30T02:17:51;99614.03;;;1.11;100.00
39793;BME280;26080;42.264;24.536;2023-01-30T02:20:35;99626.00;;;1.21;100.00
39793;BME280;26080;42.264;24.536;2023-01-30T02:28:57;99613.97;;;1.20;100.00
39793;BME280;26080;42.264;24.536;2023-01-30T02:31:39;99620.84;;;1.21;100.00
39793;BME280;26080;42.264;24.536;2023-01-30T02:34:34;99608.81;;;1.20;100.00
39793;BME280;26080;42.264;24.536;2023-01-30T02:45:06;99605.38;;;1.18;100.00
39793;BME280;26080;42.264;24.536;2023-01-30T02:47:43;99565.13;;;0.86;100.00
39793;BME280;26080;42.264;24.536;2023-01-30T02:52:35;99595.91;;;1.20;100.00
39793;BME280;26080;42.264;24.536;2023-01-30T02:55:09;99603.66;;;1.20;100.00
39793;BME280;26080;42.264;24.536;2023-01-30T02:57:41;99601.06;;;1.22;100.00
39793;BME280;26080;42.264;24.536;2023-01-30T03:00:07;99594.19;;;1.21;100.00
39793;BME280;26080;42.264;24.536;2023-01-30T03:11:16;99594.19;;;1.19;100.00
39793;BME280;26080;42.264;24.536;2023-01-30T03:13:54;99585.63;;;1.17;100.00
39793;BME280;26080;42.264;24.536;2023-01-30T03:18:58;99582.22;;;1.07;100.00
39793;BME280;26080;42.264;24.536;2023-01-30T03:21:25;99591.69;;;1.10;100.00
39793;BME280;26080;42.264;24.536;2023-01-30T03:23:50;99589.94;;;1.09;100.00
39793;BME280;26080;42.264;24.536;2023-01-30T03:26:36;99588.22;;;1.08;100.00
39793;BME280;26080;42.264;24.536;2023-01-30T03:29:04;99589.09;;;1.05;100.00
39793;BME280;26080;42.264;24.536;2023-01-30T03:31:30;99586.53;;;1.04;100.00
39793;BME280;26080;42.264;24.536;2023-01-30T03:33:55;99558.22;;;0.88;100.00
39793;BME280;26080;42.264;24.536;2023-01-30T03:36:21;99583.09;;;1.05;100.00
39793;BME280;26080;42.264;24.536;2023-01-30T03:38:47;99586.53;;;1.05;100.00
39793;BME280;26080;42.264;24.536;2023-01-30T03:41:12;99588.25;;;1.05;100.00
39793;BME280;26080;42.264;24.536;2023-01-30T03:43:37;99576.25;;;0.98;100.00
39793;BME280;26080;42.264;24.536;2023-01-30T03:46:03;99585.72;;;0.97;100.00
39793;BME280;26080;42.264;24.536;2023-01-30T03:48:29;99578.84;;;0.98;100.00
39793;BME280;26080;42.264;24.536;2023-01-30T03:50:54;99586.56;;;0.98;100.00
39793;BME280;26080;42.264;24.536;2023-01-30T03:53:20;99575.38;;;0.96;100.00
39793;BME280;26080;42.264;24.536;2023-01-30T03:55:45;99575.38;;;0.94;100.00
39793;BME280;26080;42.264;24.536;2023-01-30T03:58:11;99540.28;;;0.69;100.00
39793;BME280;26080;42.264;24.536;2023-01-30T04:00:36;99582.28;;;0.89;100.00
39793;BME280;26080;42.264;24.536;2023-01-30T04:03:02;99580.56;;;0.93;100.00
39793;BME280;26080;42.264;24.536;2023-01-30T04:05:27;99577.13;;;0.89;100.00
39793;BME280;26080;42.264;24.536;2023-01-30T04:07:55;99561.75;;;0.71;100.00
39793;BME280;26080;42.264;24.536;2023-01-30T04:10:22;99576.28;;;0.81;100.00
39793;BME280;26080;42.264;24.536;2023-01-30T04:12:48;99571.16;;;0.76;100.00
39793;BME280;26080;42.264;24.536;2023-01-30T04:15:13;99584.03;;;0.84;100.00
39793;BME280;26080;42.264;24.536;2023-01-30T04:17:39;99579.72;;;0.81;100.00
39793;BME280;26080;42.264;24.536;2023-01-30T04:20:05;99583.19;;;0.83;100.00
39793;BME280;26080;42.264;24.536;2023-01-30T04:22:30;99580.59;;;0.82;100.00
39793;BME280;26080;42.264;24.536;2023-01-30T04:24:56;99551.47;;;0.57;100.00
39793;BME280;26080;42.264;24.536;2023-01-30T04:27:21;99582.31;;;0.80;100.00
39793;BME280;26080;42.264;24.536;2023-01-30T04:29:47;99586.63;;;0.82;100.00
39793;BME280;26080;42.264;24.536;2023-01-30T04:32:12;99585.75;;;0.82;100.00
39793;BME280;26080;42.264;24.536;2023-01-30T04:34:38;99572.03;;;0.68;100.00
39793;BME280;26080;42.264;24.536;2023-01-30T04:37:03;99590.91;;;0.79;100.00
39793;BME280;26080;42.264;24.536;2023-01-30T04:39:29;99596.94;;;0.82;100.00
39793;BME280;26080;42.264;24.536;2023-01-30T04:41:54;99596.94;;;0.82;100.00
39793;BME280;26080;42.264;24.536;2023-01-30T04:44:20;99584.03;;;0.81;100.00
39793;BME280;26080;42.264;24.536;2023-01-30T04:46:45;99596.94;;;0.82;100.00
39793;BME280;26080;42.264;24.536;2023-01-30T04:49:11;99595.19;;;0.81;100.00
39793;BME280;26080;42.264;24.536;2023-01-30T04:51:37;99588.34;;;0.77;100.00
39793;BME280;26080;42.264;24.536;2023-01-30T04:54:03;99572.06;;;0.66;100.00
39793;BME280;26080;42.264;24.536;2023-01-30T04:56:29;99590.09;;;0.75;100.00
39793;BME280;26080;42.264;24.536;2023-01-30T04:58:54;99586.63;;;0.79;100.00
39793;BME280;26080;42.264;24.536;2023-01-30T05:03:51;99592.66;;;0.83;100.00
39793;BME280;26080;42.264;24.536;2023-01-30T05:06:17;99582.31;;;0.78;100.00
39793;BME280;26080;42.264;24.536;2023-01-30T05:08:43;99590.03;;;0.81;100.00
39793;BME280;26080;42.264;24.536;2023-01-30T05:11:08;99568.63;;;0.70;100.00
39793;BME280;26080;42.264;24.536;2023-01-30T05:13:34;99583.19;;;0.80;100.00
39793;BME280;26080;42.264;24.536;2023-01-30T05:15:59;99573.75;;;0.75;100.00
39793;BME280;26080;42.264;24.536;2023-01-30T05:18:25;99576.31;;;0.79;100.00
39793;BME280;26080;42.264;24.536;2023-01-30T05:20:50;99564.31;;;0.66;100.00
39793;BME280;26080;42.264;24.536;2023-01-30T05:23:21;99590.94;;;0.77;100.00
39793;BME280;26080;42.264;24.536;2023-01-30T05:25:47;99585.78;;;0.77;100.00
39793;BME280;26080;42.264;24.536;2023-01-30T05:28:12;99583.19;;;0.77;100.00
39793;BME280;26080;42.264;24.536;2023-01-30T05:30:38;99542.88;;;0.52;100.00
39793;BME280;26080;42.264;24.536;2023-01-30T05:33:03;99579.78;;;0.75;100.00
39793;BME280;26080;42.264;24.536;2023-01-30T05:35:29;99586.63;;;0.76;100.00
39793;BME280;26080;42.264;24.536;2023-01-30T05:37:54;99589.22;;;0.78;100.00
39793;BME280;26080;42.264;24.536;2023-01-30T05:40:23;99598.66;;;0.77;100.00
39793;BME280;26080;42.264;24.536;2023-01-30T05:42:48;99589.22;;;0.78;100.00
39793;BME280;26080;42.264;24.536;2023-01-30T05:45:14;99591.78;;;0.76;100.00
39793;BME280;26080;42.264;24.536;2023-01-30T05:47:39;99595.22;;;0.78;100.00
39793;BME280;26080;42.264;24.536;2023-01-30T05:50:05;99588.34;;;0.77;100.00
39793;BME280;26080;42.264;24.536;2023-01-30T05:52:30;99583.22;;;0.74;100.00
39793;BME280;26080;42.264;24.536;2023-01-30T05:54:55;99593.50;;;0.80;100.00
39793;BME280;26080;42.264;24.536;2023-01-30T05:57:21;99590.91;;;0.80;100.00
39793;BME280;26080;42.264;24.536;2023-01-30T05:59:46;99588.34;;;0.80;100.00
39793;BME280;26080;42.264;24.536;2023-01-30T06:02:12;99577.22;;;0.66;100.00
39793;BME280;26080;42.264;24.536;2023-01-30T06:04:37;99589.22;;;0.76;100.00
39793;BME280;26080;42.264;24.536;2023-01-30T06:07:03;99584.94;;;0.74;100.00
39793;BME280;26080;42.264;24.536;2023-01-30T06:09:29;99597.78;;;0.80;100.00
39793;BME280;26080;42.264;24.536;2023-01-30T06:11:54;99602.09;;;0.79;100.00
39793;BME280;26080;42.264;24.536;2023-01-30T06:14:20;99597.78;;;0.80;100.00
39793;BME280;26080;42.264;24.536;2023-01-30T06:16:45;99601.22;;;0.80;100.00
39793;BME280;26080;42.264;24.536;2023-01-30T06:19:11;99592.66;;;0.83;100.00
39793;BME280;26080;42.264;24.536;2023-01-30T06:21:36;99594.34;;;0.79;100.00
39793;BME280;26080;42.264;24.536;2023-01-30T06:24:02;99602.09;;;0.85;100.00
39793;BME280;26080;42.264;24.536;2023-01-30T06:26:28;99576.38;;;0.69;100.00
39793;BME280;26080;42.264;24.536;2023-01-30T06:28:53;99604.69;;;0.84;100.00
39793;BME280;26080;42.264;24.536;2023-01-30T06:31:19;99597.78;;;0.81;100.00
39793;BME280;26080;42.264;24.536;2023-01-30T06:33:44;99603.81;;;0.86;100.00
39793;BME280;26080;42.264;24.536;2023-01-30T06:36:09;99606.34;;;0.91;100.00
39793;BME280;26080;42.264;24.536;2023-01-30T06:38:35;99606.34;;;0.99;100.00
39793;BME280;26080;42.264;24.536;2023-01-30T06:41:00;99602.91;;;0.98;100.00
39793;BME280;26080;42.264;24.536;2023-01-30T06:43:26;99599.47;;;0.99;100.00
39793;BME280;26080;42.264;24.536;2023-01-30T06:45:52;99598.56;;;1.03;100.00
39793;BME280;26080;42.264;24.536;2023-01-30T06:48:17;99583.97;;;1.02;100.00
39793;BME280;26080;42.264;24.536;2023-01-30T06:50:45;99597.69;;;1.13;100.00
39793;BME280;26080;42.264;24.536;2023-01-30T06:53:11;99577.94;;;1.05;100.00
39793;BME280;26080;42.264;24.536;2023-01-30T06:55:36;99607.94;;;1.27;100.00
39793;BME280;26080;42.264;24.536;2023-01-30T06:58:10;99606.22;;;1.22;100.00
39793;BME280;26080;42.264;24.536;2023-01-30T07:00:37;99605.38;;;1.21;100.00
39793;BME280;26080;42.264;24.536;2023-01-30T07:03:04;99603.66;;;1.20;100.00
39793;BME280;26080;42.264;24.536;2023-01-30T07:05:30;99602.78;;;1.23;100.00
39793;BME280;26080;42.264;24.536;2023-01-30T07:07:56;99605.34;;;1.29;100.00
39793;BME280;26080;42.264;24.536;2023-01-30T07:10:21;99618.19;;;1.35;100.00
39793;BME280;26080;42.264;24.536;2023-01-30T07:12:47;99609.59;;;1.36;100.00
39793;BME280;26080;42.264;24.536;2023-01-30T07:15:12;99600.16;;;1.30;100.00
39793;BME280;26080;42.264;24.536;2023-01-30T07:17:41;99615.59;;;1.41;100.00
39793;BME280;26080;42.264;24.536;2023-01-30T07:20:08;99602.69;;;1.36;100.00
39793;BME280;26080;42.264;24.536;2023-01-30T07:22:34;99616.41;;;1.47;100.00
39793;BME280;26080;42.264;24.536;2023-01-30T07:25:00;99608.69;;;1.43;100.00
39793;BME280;26080;42.264;24.536;2023-01-30T07:27:25;99617.31;;;1.40;100.00
39793;BME280;26080;42.264;24.536;2023-01-30T07:29:51;99614.72;;;1.43;100.00
39793;BME280;26080;42.264;24.536;2023-01-30T07:32:18;99607.84;;;1.44;100.00
39793;BME280;26080;42.264;24.536;2023-01-30T07:34:45;99618.16;;;1.44;100.00
39793;BME280;26080;42.264;24.536;2023-01-30T07:37:10;99614.66;;;1.49;100.00
39793;BME280;26080;42.264;24.536;2023-01-30T07:39:36;99607.78;;;1.53;100.00
39793;BME280;26080;42.264;24.536;2023-01-30T07:42:02;99570.09;;;1.23;100.00
39793;BME280;26080;42.264;24.536;2023-01-30T07:44:27;99610.38;;;1.52;100.00
39793;BME280;26080;42.264;24.536;2023-01-30T07:46:53;99612.09;;;1.53;100.00
39793;BME280;26080;42.264;24.536;2023-01-30T07:49:18;99612.94;;;1.50;100.00
39793;BME280;26080;42.264;24.536;2023-01-30T07:51:45;99606.94;;;1.53;100.00
39793;BME280;26080;42.264;24.536;2023-01-30T07:54:10;99609.53;;;1.51;100.00
39793;BME280;26080;42.264;24.536;2023-01-30T07:56:36;99610.38;;;1.55;100.00
39793;BME280;26080;42.264;24.536;2023-01-30T07:59:02;99611.19;;;1.57;100.00
39793;BME280;26080;42.264;24.536;2023-01-30T08:01:30;99610.34;;;1.58;100.00
39793;BME280;26080;42.264;24.536;2023-01-30T08:03:55;99612.88;;;1.62;100.00
39793;BME280;26080;42.264;24.536;2023-01-30T08:06:21;99593.97;;;1.59;100.00
39793;BME280;26080;42.264;24.536;2023-01-30T08:08:47;99597.41;;;1.61;100.00
39793;BME280;26080;42.264;24.536;2023-01-30T08:11:12;99605.94;;;1.70;100.00
39793;BME280;26080;42.264;24.536;2023-01-30T08:13:38;99596.47;;;1.71;100.00
39793;BME280;26080;42.264;24.536;2023-01-30T08:16:04;99602.38;;;1.87;100.00
39793;BME280;26080;42.264;24.536;2023-01-30T08:18:31;99592.03;;;1.93;100.00
39793;BME280;26080;42.264;24.536;2023-01-30T08:21:03;99591.91;;;2.08;100.00
39793;BME280;26080;42.264;24.536;2023-01-30T08:23:30;99604.69;;;2.19;100.00
39793;BME280;26080;42.264;24.536;2023-01-30T08:25:57;99601.22;;;2.26;100.00
39793;BME280;26080;42.264;24.536;2023-01-30T08:28:23;99590.94;;;2.17;100.00
39793;BME280;26080;42.264;24.536;2023-01-30T08:30:49;99575.56;;;2.01;100.00
39793;BME280;26080;42.264;24.536;2023-01-30T08:33:17;99590.91;;;2.23;100.00
39793;BME280;26080;42.264;24.536;2023-01-30T08:35:43;99587.50;;;2.18;100.00
39793;BME280;26080;42.264;24.536;2023-01-30T08:38:09;99599.53;;;2.22;100.00
39793;BME280;26080;42.264;24.536;2023-01-30T08:40:38;99604.69;;;2.19;100.00
39793;BME280;26080;42.264;24.536;2023-01-30T08:43:04;99576.50;;;1.94;100.00
39793;BME280;26080;42.264;24.536;2023-01-30T08:45:29;99597.75;;;2.27;100.00
39793;BME280;26080;42.264;24.536;2023-01-30T08:48:08;99589.94;;;2.36;100.00
39793;BME280;26080;42.264;24.536;2023-01-30T08:50:34;99593.38;;;2.35;100.00
39793;BME280;26080;42.264;24.536;2023-01-30T08:53:07;99596.84;;;2.34;100.00
39793;BME280;26080;42.264;24.536;2023-01-30T08:55:34;99596.81;;;2.32;100.00
39793;BME280;26080;42.264;24.536;2023-01-30T08:57:59;99594.22;;;2.37;100.00
39793;BME280;26080;42.264;24.536;2023-01-30T09:00:26;99576.88;;;2.47;100.00
39793;BME280;26080;42.264;24.536;2023-01-30T09:02:56;99580.97;;;2.67;100.00
39793;BME280;26080;42.264;24.536;2023-01-30T09:05:21;99550.84;;;2.63;100.00
39793;BME280;26080;42.264;24.536;2023-01-30T09:07:47;99578.22;;;2.83;100.00
39793;BME280;26080;42.264;24.536;2023-01-30T09:10:13;99578.16;;;2.89;100.00
39793;BME280;26080;42.264;24.536;2023-01-30T09:12:38;99577.31;;;2.88;100.00
39793;BME280;26080;42.264;24.536;2023-01-30T09:15:04;99564.34;;;2.90;100.00
39793;BME280;26080;42.264;24.536;2023-01-30T09:17:30;99546.28;;;2.84;100.00
39793;BME280;26080;42.264;24.536;2023-01-30T09:19:55;99563.19;;;3.12;100.00
39793;BME280;26080;42.264;24.536;2023-01-30T09:22:21;99556.09;;;3.26;100.00
39793;BME280;26080;42.264;24.536;2023-01-30T09:24:49;99548.31;;;3.30;100.00
39793;BME280;26080;42.264;24.536;2023-01-30T09:27:15;99549.91;;;3.37;100.00
39793;BME280;26080;42.264;24.536;2023-01-30T09:29:40;99555.13;;;3.34;100.00
39793;BME280;26080;42.264;24.536;2023-01-30T09:32:06;99536.97;;;3.37;100.00
39793;BME280;26080;42.264;24.536;2023-01-30T09:34:31;99523.25;;;3.32;100.00
39793;BME280;26080;42.264;24.536;2023-01-30T09:36:57;99530.81;;;3.45;100.00
39793;BME280;26080;42.264;24.536;2023-01-30T09:39:24;99535.81;;;3.56;100.00
39793;BME280;26080;42.264;24.536;2023-01-30T09:55:42;99513.03;;;3.76;100.00
39793;BME280;26080;42.264;24.536;2023-01-30T09:58:20;99501.00;;;3.74;100.00
39793;BME280;26080;42.264;24.536;2023-01-30T10:00:48;99479.78;;;3.50;100.00
39793;BME280;26080;42.264;24.536;2023-01-30T10:03:23;99494.22;;;3.65;100.00
39793;BME280;26080;42.264;24.536;2023-01-30T10:25:01;99460.28;;;3.80;97.56
39793;BME280;26080;42.264;24.536;2023-01-30T10:27:46;99447.34;;;3.80;99.23
39793;BME280;26080;42.264;24.536;2023-01-30T10:30:15;99429.50;;;3.64;97.25
39793;BME280;26080;42.264;24.536;2023-01-30T10:32:54;99399.59;;;3.46;97.95
39793;BME280;26080;42.264;24.536;2023-01-30T10:35:23;99434.50;;;3.74;97.60
39793;BME280;26080;42.264;24.536;2023-01-30T10:40:55;99402.81;;;3.60;98.79
39793;BME280;26080;42.264;24.536;2023-01-30T10:43:29;99415.59;;;3.71;95.92
39793;BME280;26080;42.264;24.536;2023-01-30T10:49:09;99407.72;;;3.75;94.54
39793;BME280;26080;42.264;24.536;2023-01-30T10:54:54;99393.44;;;3.53;94.22
39793;BME280;26080;42.264;24.536;2023-01-30T11:00:05;99369.47;;;3.40;94.55
39793;BME280;26080;42.264;24.536;2023-01-30T11:02:58;99376.34;;;3.44;92.87
39793;BME280;26080;42.264;24.536;2023-01-30T11:05:41;99368.59;;;3.43;93.82
39793;BME280;26080;42.264;24.536;2023-01-30T11:08:26;99367.84;;;3.36;92.78
39793;BME280;26080;42.264;24.536;2023-01-30T11:10:53;99359.19;;;3.37;93.06
39793;BME280;26080;42.264;24.536;2023-01-30T11:13:21;99339.47;;;3.28;91.12
39793;BME280;26080;42.264;24.536;2023-01-30T11:15:52;99334.38;;;3.25;93.73
39793;BME280;26080;42.264;24.536;2023-01-30T11:18:20;99341.88;;;3.39;93.58
39793;BME280;26080;42.264;24.536;2023-01-30T11:21:02;99338.41;;;3.40;94.66
39793;BME280;26080;42.264;24.536;2023-01-30T11:23:42;99341.81;;;3.44;93.73
39793;BME280;26080;42.264;24.536;2023-01-30T11:26:28;99315.28;;;3.33;93.66
39793;BME280;26080;42.264;24.536;2023-01-30T11:28:57;99328.88;;;3.44;90.34
39793;BME280;26080;42.264;24.536;2023-01-30T11:31:28;99322.09;;;3.37;89.47
39793;BME280;26080;42.264;24.536;2023-01-30T11:34:05;99309.97;;;3.39;89.82
39793;BME280;26080;42.264;24.536;2023-01-30T11:36:34;99286.22;;;3.17;87.08
39793;BME280;26080;42.264;24.536;2023-01-30T11:39:17;99296.34;;;3.31;88.21
39793;BME280;26080;42.264;24.536;2023-01-30T11:44:31;99298.72;;;3.40;87.61
39793;BME280;26080;42.264;24.536;2023-01-30T11:47:06;99294.53;;;3.34;88.69
39793;BME280;26080;42.264;24.536;2023-01-30T11:49:38;99283.38;;;3.31;86.79
39793;BME280;26080;42.264;24.536;2023-01-30T11:52:05;99273.78;;;3.36;90.37
39793;BME280;26080;42.264;24.536;2023-01-30T11:54:38;99275.56;;;3.34;90.28
39793;BME280;26080;42.264;24.536;2023-01-30T11:57:12;99237.97;;;3.13;88.20
39793;BME280;26080;42.264;24.536;2023-01-30T12:02:37;99256.97;;;3.12;89.79
39793;BME280;26080;42.264;24.536;2023-01-30T12:05:06;99245.22;;;2.94;89.80
39793;BME280;26080;42.264;24.536;2023-01-30T12:07:43;99237.56;;;2.86;88.48
39793;BME280;26080;42.264;24.536;2023-01-30T12:12:50;99225.91;;;2.64;87.77
39793;BME280;26080;42.264;24.536;2023-01-30T12:15:33;99226.81;;;2.61;87.57
39793;BME280;26080;42.264;24.536;2023-01-30T12:21:03;99235.44;;;2.60;87.01
39793;BME280;26080;42.264;24.536;2023-01-30T12:23:49;99234.56;;;2.60;89.21
39793;BME280;26080;42.264;24.536;2023-01-30T12:26:46;99231.22;;;2.55;87.87
39793;BME280;26080;42.264;24.536;2023-01-30T12:32:06;99223.63;;;2.44;92.93
39793;BME280;26080;42.264;24.536;2023-01-30T12:34:46;99236.63;;;2.40;92.85
39793;BME280;26080;42.264;24.536;2023-01-30T12:43:23;99238.63;;;2.22;94.34
39793;BME280;26080;42.264;24.536;2023-01-30T12:46:14;99230.97;;;2.15;93.16
39793;BME280;26080;42.264;24.536;2023-01-30T12:51:39;99224.13;;;2.11;98.35
39793;BME280;26080;42.264;24.536;2023-01-30T12:57:11;99205.22;;;2.08;99.28
39793;BME280;26080;42.264;24.536;2023-01-30T12:59:54;99212.06;;;2.13;95.84
39793;BME280;26080;42.264;24.536;2023-01-30T13:02:44;99209.44;;;2.14;97.65
39793;BME280;26080;42.264;24.536;2023-01-30T13:05:42;99193.84;;;2.22;97.29
39793;BME280;26080;42.264;24.536;2023-01-30T13:08:54;99198.06;;;2.26;97.13
39793;BME280;26080;42.264;24.536;2023-01-30T13:16:56;99192.84;;;2.29;97.04
39793;BME280;26080;42.264;24.536;2023-01-30T13:25:30;99181.34;;;2.47;95.85
39793;BME280;26080;42.264;24.536;2023-01-30T13:28:02;99176.22;;;2.45;91.14
39793;BME280;26080;42.264;24.536;2023-01-30T13:30:31;99165.09;;;2.40;92.00
39793;BME280;26080;42.264;24.536;2023-01-30T13:33:07;99160.72;;;2.44;93.20
39793;BME280;26080;42.264;24.536;2023-01-30T13:35:47;99141.97;;;2.32;93.62
39793;BME280;26080;42.264;24.536;2023-01-30T13:38:24;99163.34;;;2.42;91.44
39793;BME280;26080;42.264;24.536;2023-01-30T13:41:01;99164.28;;;2.38;92.75
39793;BME280;26080;42.264;24.536;2023-01-30T13:43:37;99149.59;;;2.40;95.74
39793;BME280;26080;42.264;24.536;2023-01-30T13:46:07;99162.63;;;2.34;95.06
39793;BME280;26080;42.264;24.536;2023-01-30T13:48:39;99156.72;;;2.26;95.90
39793;BME280;26080;42.264;24.536;2023-01-30T13:56:58;99163.69;;;2.22;94.57
39793;BME280;26080;42.264;24.536;2023-01-30T14:02:25;99158.03;;;1.97;96.09
39793;BME280;26080;42.264;24.536;2023-01-30T14:04:56;99160.56;;;2.00;96.67
39793;BME280;26080;42.264;24.536;2023-01-30T14:07:32;99164.88;;;2.00;95.14
39793;BME280;26080;42.264;24.536;2023-01-30T14:12:39;99159.31;;;1.69;95.31
39793;BME280;26080;42.264;24.536;2023-01-30T14:17:36;99134.63;;;1.48;97.34
39793;BME280;26080;42.264;24.536;2023-01-30T14:20:16;99141.56;;;1.44;99.30
39793;BME280;26080;42.264;24.536;2023-01-30T14:22:52;99156.22;;;1.42;99.89
39793;BME280;26080;42.264;24.536;2023-01-30T14:25:28;99145.88;;;1.42;99.98
39793;BME280;26080;42.264;24.536;2023-01-30T14:33:46;99140.13;;;1.22;100.00
39793;BME280;26080;42.264;24.536;2023-01-30T14:38:41;99148.88;;;1.09;100.00
39793;BME280;26080;42.264;24.536;2023-01-30T14:41:27;99123.16;;;1.03;100.00
39793;BME280;26080;42.264;24.536;2023-01-30T14:43:53;99139.38;;;1.14;100.00
39793;BME280;26080;42.264;24.536;2023-01-30T14:54:01;99139.56;;;0.96;100.00
39793;BME280;26080;42.264;24.536;2023-01-30T14:59:38;99137.97;;;0.85;100.00
39793;BME280;26080;42.264;24.536;2023-01-30T15:04:47;99133.84;;;0.68;100.00
39793;BME280;26080;42.264;24.536;2023-01-30T15:07:21;99133.97;;;0.58;100.00
39793;BME280;26080;42.264;24.536;2023-01-30T15:15:28;99126.41;;;0.39;100.00
39793;BME280;26080;42.264;24.536;2023-01-30T15:21:11;99123.13;;;0.21;100.00
39793;BME280;26080;42.264;24.536;2023-01-30T15:30:08;99131.81;;;0.08;100.00
39793;BME280;26080;42.264;24.536;2023-01-30T15:32:40;99133.59;;;0.03;100.00
39793;BME280;26080;42.264;24.536;2023-01-30T15:42:49;99133.78;;;-0.23;100.00
39793;BME280;26080;42.264;24.536;2023-01-30T15:48:32;99120.91;;;-0.27;100.00
39793;BME280;26080;42.264;24.536;2023-01-30T15:50:37;99119.22;;;-0.27;100.00
39793;BME280;26080;42.264;24.536;2023-01-30T15:53:03;99120.94;;;-0.26;100.00
39793;BME280;26080;42.264;24.536;2023-01-30T15:55:35;99124.34;;;-0.22;100.00
39793;BME280;26080;42.264;24.536;2023-01-30T15:58:14;99084.22;;;-0.51;100.00
39793;BME280;26080;42.264;24.536;2023-01-30T16:00:46;99121.81;;;-0.32;100.00